Terminal Aerodrome Forecast
Issued by NWS

Home | Current Version | Previous Version | Graphics & Text | Print | Product List | Glossary On
Versions: 1 2 3 4 5 6 7 8 9 10 11 12 13 14 15
000
FTUS43 KUNR 300938 AAA
TAFGCC
TAF AMD
KGCC 300938Z 3010/0106 23007KT P6SM BKN130 OVC250
      TEMPO 3010/3012 -SHRA
     FM301700 33015G25KT P6SM SCT250
     FM010100 35006KT P6SM SKC=

USA.gov is the U.S. government's official web portal to all federal, state and local government web resources and services.